createdAt,value
2023-05-12T00:01:49.411Z,9.60
2023-05-12T00:11:51.424Z,9.50
2023-05-12T00:21:54.685Z,9.40
2023-05-12T00:31:56.716Z,9.30
2023-05-12T00:42:00.118Z,9.30
2023-05-12T00:52:03.197Z,9.10
2023-05-12T01:02:06.954Z,9.00
2023-05-12T01:12:09.016Z,8.90
2023-05-12T01:22:13.122Z,8.90
2023-05-12T01:32:16.723Z,8.80
2023-05-12T01:42:18.704Z,8.90
2023-05-12T01:52:21.996Z,9.10
2023-05-12T02:02:24.007Z,9.40
2023-05-12T02:12:27.517Z,9.80
2023-05-12T02:22:29.465Z,10.10
2023-05-12T02:32:32.804Z,10.40
2023-05-12T02:42:34.772Z,10.60
2023-05-12T02:52:39.321Z,10.70
2023-05-12T03:02:41.781Z,10.90
2023-05-12T03:12:45.195Z,10.90
2023-05-12T03:22:47.166Z,10.90
2023-05-12T03:32:50.487Z,10.80
2023-05-12T03:42:52.516Z,10.70
2023-05-12T03:52:56.135Z,10.70
2023-05-12T04:02:58.354Z,10.70
2023-05-12T04:13:01.722Z,10.80
2023-05-12T04:23:04.019Z,10.80
2023-05-12T04:33:07.359Z,10.90
2023-05-12T04:43:09.334Z,10.90
2023-05-12T04:53:12.752Z,10.90
2023-05-12T05:03:14.919Z,10.80
2023-05-12T05:13:18.297Z,10.70
2023-05-12T05:23:20.279Z,10.90
2023-05-12T05:33:23.759Z,10.90
2023-05-12T05:43:25.741Z,10.80
2023-05-12T05:53:29.181Z,11.00
2023-05-12T06:03:31.252Z,11.10
2023-05-12T06:13:34.655Z,11.10
2023-05-12T06:23:36.684Z,11.30
2023-05-12T06:33:40.166Z,11.40
2023-05-12T06:43:42.102Z,11.50
2023-05-12T06:53:45.396Z,11.80
2023-05-12T07:03:47.354Z,12.10
2023-05-12T07:13:51.804Z,12.30
2023-05-12T07:23:53.825Z,13.00
2023-05-12T07:33:57.124Z,13.40
2023-05-12T07:43:59.030Z,13.50
2023-05-12T07:54:02.386Z,13.70
2023-05-12T08:04:04.593Z,14.00
2023-05-12T08:14:08.529Z,14.40
2023-05-12T08:24:10.490Z,15.00
2023-05-12T08:34:14.442Z,16.00
2023-05-12T08:44:18.645Z,16.40
2023-05-12T08:54:23.886Z,17.30
2023-05-12T09:04:25.875Z,18.20
2023-05-12T09:14:34.556Z,19.60
2023-05-12T09:24:37.125Z,16.60
2023-05-12T09:34:40.473Z,15.30
2023-05-12T09:44:42.428Z,15.40
2023-05-12T09:54:47.445Z,15.00
2023-05-12T10:04:52.805Z,14.50
2023-05-12T10:14:57.991Z,14.30
2023-05-12T10:25:01.510Z,13.90
2023-05-12T10:35:12.125Z,13.60
2023-05-12T10:45:18.763Z,13.50
2023-05-12T10:55:31.497Z,13.00
2023-05-12T11:05:34.967Z,12.80
2023-05-12T11:15:38.769Z,12.90
2023-05-12T11:25:44.460Z,12.70
2023-05-12T11:35:48.125Z,12.50
2023-05-12T11:45:50.140Z,12.40
2023-05-12T11:55:55.413Z,12.10
2023-05-12T12:05:58.992Z,12.20
2023-05-12T12:16:02.590Z,12.10
2023-05-12T12:26:04.659Z,12.10
2023-05-12T12:36:08.662Z,12.00
2023-05-12T12:46:10.769Z,12.10
2023-05-12T12:56:14.106Z,12.20
2023-05-12T13:06:16.103Z,12.20
2023-05-12T13:16:19.444Z,12.10
2023-05-12T13:26:21.471Z,12.00
2023-05-12T13:36:24.960Z,11.90
2023-05-12T13:46:26.993Z,11.90
2023-05-12T13:56:30.359Z,11.80
2023-05-12T14:06:32.326Z,11.80
2023-05-12T14:16:35.775Z,11.70
2023-05-12T14:26:37.694Z,11.70
2023-05-12T14:36:40.994Z,11.70
2023-05-12T14:46:42.911Z,11.80
2023-05-12T14:56:46.218Z,11.80
2023-05-12T15:06:48.167Z,11.80
2023-05-12T15:16:51.808Z,11.80
2023-05-12T15:26:53.810Z,12.00
2023-05-12T15:36:57.108Z,12.00
2023-05-12T15:46:59.101Z,11.90
2023-05-12T15:57:02.566Z,12.00
2023-05-12T16:07:04.932Z,12.20
2023-05-12T16:17:08.273Z,12.30
2023-05-12T16:27:10.364Z,12.30
2023-05-12T16:37:13.651Z,12.40
2023-05-12T16:47:15.621Z,12.40
2023-05-12T16:57:18.957Z,12.30
2023-05-12T17:07:27.312Z,12.20
2023-05-12T17:17:30.698Z,12.20
2023-05-12T17:27:32.707Z,12.10
2023-05-12T17:37:36.513Z,12.20
2023-05-12T17:47:38.540Z,12.10
2023-05-12T17:58:20.811Z,12.00
2023-05-12T18:08:24.135Z,11.80
2023-05-12T18:18:26.202Z,11.80
2023-05-12T18:28:29.729Z,11.80
2023-05-12T18:38:31.637Z,11.70
2023-05-12T18:48:34.950Z,11.60
2023-05-12T18:58:36.885Z,11.60
2023-05-12T19:08:40.174Z,11.70
2023-05-12T19:18:42.197Z,11.60
2023-05-12T19:28:45.577Z,11.50
2023-05-12T19:38:47.509Z,11.40
2023-05-12T19:48:50.998Z,11.40
2023-05-12T19:58:53.018Z,11.50
2023-05-12T20:08:56.352Z,11.40
2023-05-12T20:18:59.161Z,11.30
2023-05-12T20:29:03.920Z,11.30
2023-05-12T20:39:05.874Z,11.30
2023-05-12T20:49:09.181Z,11.30
2023-05-12T20:59:11.077Z,11.30
2023-05-12T21:09:14.421Z,11.10
2023-05-12T21:19:16.362Z,11.10
2023-05-12T21:29:19.683Z,11.10
2023-05-12T21:39:21.745Z,11.20
2023-05-12T21:49:25.194Z,11.40
2023-05-12T21:59:27.248Z,11.40
2023-05-12T22:09:31.249Z,11.20
2023-05-12T22:19:58.215Z,11.20
2023-05-12T22:30:01.577Z,11.10
2023-05-12T22:40:03.670Z,11.10
2023-05-12T22:50:07.806Z,10.80
2023-05-12T23:00:10.567Z,10.90
2023-05-12T23:10:14.003Z,10.90
2023-05-12T23:20:15.933Z,10.90
2023-05-12T23:30:19.397Z,10.70
2023-05-12T23:40:21.634Z,10.80
2023-05-12T23:50:25.345Z,10.70
